ACA638 CYBC-CYOW
Flight info
| Callsign | ACA638 |
|---|---|
| Flight time | N/A |
| Altitude | 38000 |
| Route | CYBC1/28 MIVAX DCT OBTEK DCT NOSUT DCT ALIDO LEAMY5 |
| Aircraft | A20N/M-SDE2E3FGHIRWXY/LB1 |
Departure
| Time | N/A |
|---|---|
| Airport | Baie-Comeau Airport (CYBC) |
Arrival
| Time | 2026-05-05 01:39 |
|---|---|
| Airport | Ottawa Macdonald-Cartier International Airport (CYOW) |
| Time | Latitude | Longitude | Altitude | Speed | Heading |
|---|---|---|---|---|---|
| 2026-05-05 01:02 | 46.50678 | -73.15166 | 35732 ft | 473 kts | 174° |
| 2026-05-05 01:02 | 46.47494 | -73.13778 | 35735 ft | 482 kts | 161° |
| 2026-05-05 01:02 | 46.44793 | -73.11686 | 35735 ft | 489 kts | 149° |
| 2026-05-05 01:03 | 46.42037 | -73.09031 | 35734 ft | 486 kts | 155° |
| 2026-05-05 01:03 | 46.38971 | -73.07070 | 35733 ft | 477 kts | 168° |
| 2026-05-05 01:03 | 46.36055 | -73.06118 | 35731 ft | 469 kts | 179° |
| 2026-05-05 01:03 | 46.33295 | -73.05959 | 35731 ft | 459 kts | 190° |
| 2026-05-05 01:04 | 46.30150 | -73.06683 | 35729 ft | 447 kts | 203° |
| 2026-05-05 01:04 | 46.24867 | -73.10713 | 35728 ft | 423 kts | 228° |
| 2026-05-05 01:04 | 46.22905 | -73.13801 | 35727 ft | 412 kts | 241° |
| 2026-05-05 01:05 | 46.21541 | -73.17367 | 35722 ft | 402 kts | 253° |
| 2026-05-05 01:05 | 46.20829 | -73.21220 | 35726 ft | 395 kts | 266° |
| 2026-05-05 01:05 | 46.20799 | -73.25159 | 35725 ft | 390 kts | 279° |
| 2026-05-05 01:05 | 46.21447 | -73.28936 | 35725 ft | 388 kts | 292° |
| 2026-05-05 01:06 | 46.23834 | -73.35931 | 35729 ft | 388 kts | 294° |
| 2026-05-05 01:06 | 46.24872 | -73.39523 | 35605 ft | 385 kts | 290° |
| 2026-05-05 01:06 | 46.25737 | -73.43158 | 35288 ft | 379 kts | 288° |
| 2026-05-05 01:07 | 46.26488 | -73.46787 | 34888 ft | 373 kts | 287° |
| 2026-05-05 01:07 | 46.27178 | -73.50357 | 34490 ft | 365 kts | 286° |
| 2026-05-05 01:07 | 46.27830 | -73.53824 | 34090 ft | 358 kts | 286° |
| 2026-05-05 01:07 | 46.28474 | -73.57260 | 33689 ft | 350 kts | 287° |
| 2026-05-05 01:08 | 46.29110 | -73.60640 | 33074 ft | 347 kts | 287° |
| 2026-05-05 01:08 | 46.29744 | -73.64001 | 32352 ft | 346 kts | 286° |
| 2026-05-05 01:08 | 46.30377 | -73.67349 | 31730 ft | 344 kts | 286° |
| 2026-05-05 01:08 | 46.31006 | -73.70686 | 31111 ft | 342 kts | 286° |
| 2026-05-05 01:09 | 46.31629 | -73.73995 | 30510 ft | 340 kts | 286° |
| 2026-05-05 01:09 | 46.32248 | -73.77289 | 29928 ft | 338 kts | 285° |
| 2026-05-05 01:09 | 46.32863 | -73.80562 | 29304 ft | 336 kts | 285° |
| 2026-05-05 01:09 | 46.33481 | -73.83804 | 28692 ft | 333 kts | 285° |
| 2026-05-05 01:10 | 46.33937 | -73.87077 | 28061 ft | 331 kts | 276° |
| 2026-05-05 01:10 | 46.33751 | -73.90391 | 27435 ft | 334 kts | 259° |
| 2026-05-05 01:10 | 46.32777 | -73.93463 | 26834 ft | 342 kts | 241° |
| 2026-05-05 01:10 | 46.31310 | -73.96189 | 26251 ft | 344 kts | 237° |
| 2026-05-05 01:11 | 46.29748 | -73.98807 | 25703 ft | 342 kts | 235° |
| 2026-05-05 01:11 | 46.28183 | -74.01378 | 25166 ft | 340 kts | 235° |
| 2026-05-05 01:11 | 46.26634 | -74.03945 | 24631 ft | 338 kts | 236° |
| 2026-05-05 01:11 | 46.25101 | -74.06515 | 24048 ft | 337 kts | 236° |
| 2026-05-05 01:12 | 46.23582 | -74.09081 | 23537 ft | 335 kts | 236° |
| 2026-05-05 01:12 | 46.22075 | -74.11633 | 23009 ft | 332 kts | 236° |
| 2026-05-05 01:12 | 46.20581 | -74.14161 | 22500 ft | 328 kts | 236° |
| 2026-05-05 01:12 | 46.19108 | -74.16650 | 21980 ft | 325 kts | 236° |
| 2026-05-05 01:13 | 46.17649 | -74.19118 | 21493 ft | 321 kts | 236° |
| 2026-05-05 01:13 | 46.16209 | -74.21549 | 20998 ft | 317 kts | 236° |
| 2026-05-05 01:13 | 46.15264 | -74.23145 | 20685 ft | 315 kts | 236° |
| 2026-05-05 01:13 | 46.13390 | -74.26306 | 20053 ft | 311 kts | 236° |
| 2026-05-05 01:14 | 46.11991 | -74.28666 | 19598 ft | 307 kts | 236° |
| 2026-05-05 01:14 | 46.10610 | -74.30992 | 19139 ft | 304 kts | 236° |
| 2026-05-05 01:14 | 46.09685 | -74.32549 | 18838 ft | 302 kts | 236° |
| 2026-05-05 01:14 | 46.08329 | -74.34836 | 18417 ft | 297 kts | 235° |
| 2026-05-05 01:15 | 46.07010 | -74.37054 | 17991 ft | 295 kts | 234° |
| 2026-05-05 01:15 | 46.05682 | -74.39284 | 17455 ft | 293 kts | 234° |
| 2026-05-05 01:15 | 46.04358 | -74.41506 | 16938 ft | 291 kts | 234° |
| 2026-05-05 01:15 | 46.03045 | -74.43706 | 16440 ft | 289 kts | 234° |
| 2026-05-05 01:16 | 46.01737 | -74.45899 | 15940 ft | 287 kts | 234° |
| 2026-05-05 01:16 | 46.00440 | -74.48072 | 15468 ft | 286 kts | 233° |
| 2026-05-05 01:16 | 45.99148 | -74.50235 | 14982 ft | 284 kts | 233° |
| 2026-05-05 01:16 | 45.97864 | -74.52381 | 14539 ft | 282 kts | 233° |
| 2026-05-05 01:17 | 45.96585 | -74.54518 | 14087 ft | 281 kts | 232° |
| 2026-05-05 01:17 | 45.95316 | -74.56636 | 13635 ft | 279 kts | 232° |
| 2026-05-05 01:17 | 45.94048 | -74.58748 | 13139 ft | 278 kts | 232° |
| 2026-05-05 01:17 | 45.92789 | -74.60844 | 12630 ft | 276 kts | 232° |
| 2026-05-05 01:18 | 45.91555 | -74.62898 | 12140 ft | 275 kts | 232° |
| 2026-05-05 01:18 | 45.90309 | -74.64971 | 11671 ft | 273 kts | 232° |
| 2026-05-05 01:18 | 45.89068 | -74.67031 | 11209 ft | 271 kts | 232° |
| 2026-05-05 01:18 | 45.87839 | -74.69072 | 10759 ft | 270 kts | 232° |
| 2026-05-05 01:19 | 45.86609 | -74.71112 | 10272 ft | 270 kts | 231° |
| 2026-05-05 01:19 | 45.85386 | -74.73137 | 9820 ft | 268 kts | 231° |
| 2026-05-05 01:19 | 45.84153 | -74.75183 | 9183 ft | 273 kts | 231° |
| 2026-05-05 01:19 | 45.82905 | -74.77255 | 8531 ft | 276 kts | 231° |
| 2026-05-05 01:20 | 45.81655 | -74.79323 | 7890 ft | 271 kts | 231° |
| 2026-05-05 01:20 | 45.80446 | -74.81321 | 7455 ft | 259 kts | 231° |
| 2026-05-05 01:20 | 45.79289 | -74.83228 | 7053 ft | 248 kts | 231° |
| 2026-05-05 01:20 | 45.78190 | -74.85039 | 6666 ft | 238 kts | 230° |
| 2026-05-05 01:21 | 45.77117 | -74.86809 | 6270 ft | 233 kts | 230° |
| 2026-05-05 01:21 | 45.76042 | -74.88582 | 5888 ft | 236 kts | 230° |
| 2026-05-05 01:21 | 45.74975 | -74.90339 | 5468 ft | 231 kts | 230° |
| 2026-05-05 01:21 | 45.73923 | -74.92071 | 5060 ft | 231 kts | 230° |
| 2026-05-05 01:22 | 45.72877 | -74.93792 | 4664 ft | 228 kts | 230° |
| 2026-05-05 01:22 | 45.71834 | -74.95511 | 4275 ft | 227 kts | 229° |
| 2026-05-05 01:22 | 45.70800 | -74.97213 | 3879 ft | 227 kts | 229° |
| 2026-05-05 01:22 | 45.69758 | -74.98920 | 3475 ft | 228 kts | 229° |
| 2026-05-05 01:23 | 45.68733 | -75.00600 | 3150 ft | 224 kts | 229° |
| 2026-05-05 01:23 | 45.67737 | -75.02238 | 3027 ft | 212 kts | 229° |
| 2026-05-05 01:23 | 45.66797 | -75.03783 | 3001 ft | 202 kts | 229° |
| 2026-05-05 01:23 | 45.65798 | -75.05415 | 3000 ft | 218 kts | 229° |
| 2026-05-05 01:24 | 45.64833 | -75.06997 | 3002 ft | 203 kts | 228° |
| 2026-05-05 01:24 | 45.63932 | -75.08470 | 3000 ft | 190 kts | 228° |
| 2026-05-05 01:24 | 45.63095 | -75.09837 | 2999 ft | 175 kts | 229° |
| 2026-05-05 01:24 | 45.62332 | -75.11081 | 3029 ft | 155 kts | 228° |
| 2026-05-05 01:25 | 45.61676 | -75.12149 | 2994 ft | 131 kts | 229° |
| 2026-05-05 01:25 | 45.61061 | -75.13154 | 2997 ft | 136 kts | 227° |
| 2026-05-05 01:25 | 45.60441 | -75.14151 | 3004 ft | 134 kts | 227° |
| 2026-05-05 01:25 | 45.59826 | -75.15159 | 2999 ft | 135 kts | 228° |
| 2026-05-05 01:26 | 45.59224 | -75.16131 | 2996 ft | 125 kts | 231° |
| 2026-05-05 01:26 | 45.58647 | -75.17065 | 2999 ft | 127 kts | 231° |
| 2026-05-05 01:26 | 45.58064 | -75.18021 | 2994 ft | 127 kts | 231° |
| 2026-05-05 01:26 | 45.57492 | -75.18959 | 2993 ft | 124 kts | 231° |
| 2026-05-05 01:27 | 45.56922 | -75.19889 | 2997 ft | 126 kts | 231° |
| 2026-05-05 01:27 | 45.56344 | -75.20835 | 2994 ft | 126 kts | 231° |
| 2026-05-05 01:27 | 45.55776 | -75.21759 | 2994 ft | 124 kts | 231° |
| 2026-05-05 01:27 | 45.55199 | -75.22698 | 2995 ft | 128 kts | 231° |
| 2026-05-05 01:28 | 45.54617 | -75.23649 | 2990 ft | 126 kts | 231° |
| 2026-05-05 01:28 | 45.54047 | -75.24576 | 2993 ft | 124 kts | 231° |
| 2026-05-05 01:28 | 45.53474 | -75.25509 | 2994 ft | 125 kts | 231° |
| 2026-05-05 01:28 | 45.52899 | -75.26447 | 2991 ft | 125 kts | 231° |
| 2026-05-05 01:29 | 45.52323 | -75.27383 | 2992 ft | 126 kts | 231° |
| 2026-05-05 01:29 | 45.51741 | -75.28328 | 2993 ft | 127 kts | 231° |
| 2026-05-05 01:29 | 45.51160 | -75.29272 | 2992 ft | 126 kts | 231° |
| 2026-05-05 01:29 | 45.50581 | -75.30211 | 2997 ft | 126 kts | 231° |
| 2026-05-05 01:30 | 45.50004 | -75.31149 | 2996 ft | 125 kts | 231° |
| 2026-05-05 01:30 | 45.49432 | -75.32080 | 2999 ft | 126 kts | 230° |
| 2026-05-05 01:30 | 45.48849 | -75.33033 | 2994 ft | 128 kts | 230° |
| 2026-05-05 01:30 | 45.48265 | -75.33980 | 2993 ft | 127 kts | 230° |
| 2026-05-05 01:31 | 45.47673 | -75.34939 | 2987 ft | 130 kts | 230° |
| 2026-05-05 01:31 | 45.47079 | -75.35897 | 2972 ft | 126 kts | 231° |
| 2026-05-05 01:31 | 45.46499 | -75.36834 | 2992 ft | 126 kts | 231° |
| 2026-05-05 01:31 | 45.45918 | -75.37775 | 2994 ft | 129 kts | 231° |
| 2026-05-05 01:32 | 45.45332 | -75.38723 | 2993 ft | 126 kts | 231° |
| 2026-05-05 01:32 | 45.44752 | -75.39664 | 2993 ft | 127 kts | 231° |
| 2026-05-05 01:32 | 45.44164 | -75.40617 | 2995 ft | 129 kts | 231° |
| 2026-05-05 01:32 | 45.43577 | -75.41565 | 2993 ft | 126 kts | 231° |
| 2026-05-05 01:33 | 45.42998 | -75.42500 | 2988 ft | 124 kts | 231° |
| 2026-05-05 01:33 | 45.42434 | -75.43408 | 2997 ft | 123 kts | 231° |
| 2026-05-05 01:33 | 45.41864 | -75.44329 | 2993 ft | 123 kts | 232° |
| 2026-05-05 01:33 | 45.41297 | -75.45245 | 2990 ft | 123 kts | 232° |
| 2026-05-05 01:34 | 45.40734 | -75.46164 | 3025 ft | 123 kts | 233° |
| 2026-05-05 01:34 | 45.40273 | -75.47151 | 2996 ft | 120 kts | 238° |
| 2026-05-05 01:34 | 45.39826 | -75.48172 | 2992 ft | 121 kts | 238° |
| 2026-05-05 01:34 | 45.39381 | -75.49179 | 2994 ft | 122 kts | 238° |
| 2026-05-05 01:35 | 45.38928 | -75.50195 | 2976 ft | 120 kts | 237° |
| 2026-05-05 01:35 | 45.38483 | -75.51191 | 2661 ft | 119 kts | 238° |
| 2026-05-05 01:35 | 45.38033 | -75.52195 | 2290 ft | 121 kts | 238° |
| 2026-05-05 01:35 | 45.37579 | -75.53209 | 2093 ft | 122 kts | 237° |
| 2026-05-05 01:36 | 45.37135 | -75.54203 | 1913 ft | 119 kts | 236° |
| 2026-05-05 01:36 | 45.36678 | -75.55225 | 1768 ft | 128 kts | 237° |
| 2026-05-05 01:36 | 45.36209 | -75.56273 | 1617 ft | 124 kts | 237° |
| 2026-05-05 01:36 | 45.35748 | -75.57320 | 1464 ft | 125 kts | 235° |
| 2026-05-05 01:37 | 45.35282 | -75.58362 | 1311 ft | 122 kts | 233° |
| 2026-05-05 01:37 | 45.34771 | -75.59461 | 1228 ft | 136 kts | 235° |
| 2026-05-05 01:37 | 45.34259 | -75.60600 | 1101 ft | 142 kts | 235° |
| 2026-05-05 01:37 | 45.33728 | -75.61801 | 1005 ft | 146 kts | 237° |
| 2026-05-05 01:38 | 45.33208 | -75.62957 | 813 ft | 132 kts | 233° |
| 2026-05-05 01:38 | 45.32685 | -75.64077 | 537 ft | 145 kts | 234° |
| 2026-05-05 01:38 | 45.32167 | -75.65252 | 425 ft | 127 kts | 233° |
| 2026-05-05 01:38 | 45.31736 | -75.66214 | 394 ft | 105 kts | 233° |
| 2026-05-05 01:39 | 45.31403 | -75.66933 | 385 ft | 40 kts | 237° |
| 2026-05-05 01:39 | 45.31368 | -75.67125 | 387 ft | 18 kts | 303° |
| 2026-05-05 01:39 | 45.31425 | -75.67137 | 387 ft | 9 kts | 9° |
| 2026-05-05 01:39 | 45.31514 | -75.67111 | 387 ft | 16 kts | 15° |
| 2026-05-05 01:40 | 45.31619 | -75.66992 | 384 ft | 23 kts | 59° |
| 2026-05-05 01:40 | 45.31712 | -75.66783 | 385 ft | 27 kts | 57° |
| 2026-05-05 01:40 | 45.31811 | -75.66563 | 388 ft | 14 kts | 58° |
| 2026-05-05 01:40 | 45.31871 | -75.66494 | 387 ft | 11 kts | 349° |
| 2026-05-05 01:41 | 45.31912 | -75.66543 | 389 ft | 7 kts | 303° |
| 2026-05-05 01:41 | 45.31951 | -75.66615 | 390 ft | 12 kts | 308° |
| 2026-05-05 01:41 | 45.32018 | -75.66667 | 389 ft | 7 kts | 21° |
| 2026-05-05 01:41 | 45.32050 | -75.66638 | 389 ft | 4 kts | 37° |
| 2026-05-05 01:42 | 45.32067 | -75.66621 | 389 ft | 2 kts | 33° |
| 2026-05-05 01:42 | 45.32069 | -75.66619 | 389 ft | 0 kts | 33° |
| 2026-05-05 02:16 | 45.32069 | -75.66620 | 389 ft | 0 kts | 33° |
| 2026-05-05 02:16 | 45.32068 | -75.66621 | 389 ft | 0 kts | 34° |
| 2026-05-05 02:16 | 45.32067 | -75.66622 | 389 ft | 0 kts | 34° |
| 2026-05-05 02:17 | 45.32065 | -75.66623 | 389 ft | 0 kts | 35° |
| 2026-05-05 02:17 | 45.32058 | -75.66628 | 389 ft | 1 kts | 66° |
| 2026-05-05 02:17 | 45.32053 | -75.66653 | 389 ft | 1 kts | 114° |
| 2026-05-05 02:17 | 45.32041 | -75.66656 | 389 ft | 8 kts | 178° |
| 2026-05-05 02:18 | 45.31904 | -75.66656 | 391 ft | 19 kts | 176° |
| 2026-05-05 02:18 | 45.31785 | -75.66634 | 387 ft | 28 kts | 213° |
| 2026-05-05 02:18 | 45.31657 | -75.66899 | 385 ft | 40 kts | 235° |
| 2026-05-05 02:18 | 45.31488 | -75.67118 | 387 ft | 27 kts | 192° |
| 2026-05-05 02:19 | 45.31363 | -75.67078 | 387 ft | 8 kts | 86° |
| 2026-05-05 02:19 | 45.31375 | -75.67043 | 387 ft | 7 kts | 62° |
| 2026-05-05 02:19 | 45.31451 | -75.66862 | 383 ft | 65 kts | 58° |
| 2026-05-05 02:19 | 45.31905 | -75.65855 | 381 ft | 170 kts | 57° |
| 2026-05-05 02:20 | 45.32670 | -75.64228 | 826 ft | 219 kts | 58° |
| 2026-05-05 02:20 | 45.33598 | -75.62231 | 1625 ft | 269 kts | 58° |
| 2026-05-05 02:20 | 45.34701 | -75.59854 | 2587 ft | 302 kts | 57° |
| 2026-05-05 02:20 | 45.35866 | -75.57341 | 3925 ft | 305 kts | 57° |
| 2026-05-05 02:21 | 45.37027 | -75.54840 | 4935 ft | 303 kts | 57° |
| 2026-05-05 02:21 | 45.38189 | -75.52335 | 5917 ft | 303 kts | 57° |
| 2026-05-05 02:21 | 45.39352 | -75.49821 | 6871 ft | 307 kts | 57° |
| 2026-05-05 02:21 | 45.40667 | -75.47412 | 7844 ft | 309 kts | 42° |
| 2026-05-05 02:22 | 45.42275 | -75.45381 | 8859 ft | 311 kts | 38° |
| 2026-05-05 02:22 | 45.43931 | -75.43386 | 9859 ft | 314 kts | 37° |
| 2026-05-05 02:22 | 45.45637 | -75.41414 | 10815 ft | 327 kts | 36° |
| 2026-05-05 02:22 | 45.47465 | -75.39358 | 11815 ft | 341 kts | 34° |
| 2026-05-05 02:23 | 45.49371 | -75.37241 | 12834 ft | 354 kts | 34° |
| 2026-05-05 02:23 | 45.51347 | -75.35053 | 13848 ft | 364 kts | 34° |
| 2026-05-05 02:23 | 45.53378 | -75.32800 | 14808 ft | 374 kts | 33° |
| 2026-05-05 02:23 | 45.55454 | -75.30494 | 15797 ft | 382 kts | 33° |
| 2026-05-05 02:24 | 45.57590 | -75.28121 | 16500 ft | 398 kts | 33° |
| 2026-05-05 02:24 | 45.59819 | -75.25644 | 16832 ft | 417 kts | 33° |
| 2026-05-05 02:24 | 45.62174 | -75.22999 | 16988 ft | 446 kts | 36° |
| 2026-05-05 02:24 | 45.64421 | -75.19732 | 16999 ft | 474 kts | 48° |
| 2026-05-05 02:25 | 45.66270 | -75.15783 | 16995 ft | 482 kts | 59° |
| 2026-05-05 02:25 | 45.67689 | -75.11422 | 17000 ft | 483 kts | 64° |
| 2026-05-05 02:25 | 45.69059 | -75.07032 | 17008 ft | 484 kts | 64° |
| 2026-05-05 02:25 | 45.70420 | -75.02694 | 17006 ft | 484 kts | 64° |
| 2026-05-05 02:26 | 45.71801 | -74.98303 | 17003 ft | 483 kts | 64° |
| 2026-05-05 02:26 | 45.73182 | -74.93908 | 16999 ft | 483 kts | 64° |
| 2026-05-05 02:26 | 45.74558 | -74.89524 | 17010 ft | 483 kts | 64° |
| 2026-05-05 02:26 | 45.75936 | -74.85131 | 17020 ft | 483 kts | 64° |
| 2026-05-05 02:27 | 45.77309 | -74.80745 | 17007 ft | 483 kts | 64° |
| 2026-05-05 02:27 | 45.78678 | -74.76362 | 16947 ft | 479 kts | 64° |
| 2026-05-05 02:27 | 45.80017 | -74.72066 | 16791 ft | 465 kts | 64° |
| 2026-05-05 02:27 | 45.81316 | -74.67889 | 16370 ft | 451 kts | 64° |
| 2026-05-05 02:28 | 45.82583 | -74.63816 | 15554 ft | 445 kts | 64° |
| 2026-05-05 02:28 | 45.83835 | -74.59791 | 14688 ft | 439 kts | 64° |
| 2026-05-05 02:28 | 45.85069 | -74.55813 | 13833 ft | 433 kts | 65° |
| 2026-05-05 02:28 | 45.86285 | -74.51887 | 12966 ft | 428 kts | 65° |
| 2026-05-05 02:29 | 45.87484 | -74.48008 | 12111 ft | 421 kts | 65° |
| 2026-05-05 02:29 | 45.88662 | -74.44192 | 11412 ft | 413 kts | 65° |
| 2026-05-05 02:29 | 45.89781 | -74.40391 | 11143 ft | 415 kts | 71° |
| 2026-05-05 02:29 | 45.90288 | -74.36384 | 11043 ft | 414 kts | 89° |
| 2026-05-05 02:30 | 45.89965 | -74.32268 | 11035 ft | 408 kts | 108° |
| 2026-05-05 02:30 | 45.88898 | -74.28702 | 10978 ft | 380 kts | 126° |
| 2026-05-05 02:30 | 45.87216 | -74.25985 | 10789 ft | 350 kts | 148° |
| 2026-05-05 02:30 | 45.85180 | -74.24363 | 10632 ft | 324 kts | 162° |
| 2026-05-05 02:31 | 45.83155 | -74.23122 | 10489 ft | 309 kts | 161° |
| 2026-05-05 02:31 | 45.81279 | -74.21750 | 10354 ft | 297 kts | 156° |
| 2026-05-05 02:31 | 45.79567 | -74.20203 | 10202 ft | 286 kts | 152° |
| 2026-05-05 02:31 | 45.77966 | -74.18545 | 9888 ft | 283 kts | 149° |
| 2026-05-05 02:32 | 45.76420 | -74.16814 | 9496 ft | 282 kts | 146° |
| 2026-05-05 02:32 | 45.75063 | -74.14749 | 9065 ft | 288 kts | 132° |
| 2026-05-05 02:32 | 45.74033 | -74.12279 | 8642 ft | 290 kts | 123° |
| 2026-05-05 02:32 | 45.73087 | -74.09735 | 8153 ft | 291 kts | 123° |
| 2026-05-05 02:33 | 45.72135 | -74.07215 | 7754 ft | 290 kts | 124° |
| 2026-05-05 02:33 | 45.71174 | -74.04694 | 7379 ft | 288 kts | 124° |
| 2026-05-05 02:33 | 45.70219 | -74.02197 | 7121 ft | 284 kts | 125° |
| 2026-05-05 02:33 | 45.69255 | -73.99693 | 7047 ft | 288 kts | 125° |
| 2026-05-05 02:34 | 45.68292 | -73.97193 | 7040 ft | 287 kts | 125° |
| 2026-05-05 02:34 | 45.67330 | -73.94695 | 7033 ft | 286 kts | 125° |
| 2026-05-05 02:34 | 45.66373 | -73.92208 | 6826 ft | 284 kts | 125° |
| 2026-05-05 02:34 | 45.65420 | -73.89734 | 6470 ft | 284 kts | 125° |
| 2026-05-05 02:35 | 45.64468 | -73.87265 | 6099 ft | 283 kts | 126° |
| 2026-05-05 02:35 | 45.63518 | -73.84802 | 5675 ft | 283 kts | 126° |
| 2026-05-05 02:35 | 45.62566 | -73.82342 | 5282 ft | 282 kts | 126° |
| 2026-05-05 02:35 | 45.61629 | -73.79919 | 4886 ft | 282 kts | 126° |
| 2026-05-05 02:36 | 45.60719 | -73.77391 | 4480 ft | 287 kts | 115° |
| 2026-05-05 02:36 | 45.60474 | -73.74533 | 4125 ft | 295 kts | 86° |
| 2026-05-05 02:36 | 45.61110 | -73.71770 | 3763 ft | 294 kts | 57° |
| 2026-05-05 02:36 | 45.62469 | -73.69669 | 3421 ft | 286 kts | 33° |
| 2026-05-05 02:37 | 45.64082 | -73.68049 | 3129 ft | 281 kts | 28° |
| 2026-05-05 02:37 | 45.65702 | -73.66440 | 3048 ft | 285 kts | 31° |
| 2026-05-05 02:37 | 45.67265 | -73.64707 | 3042 ft | 284 kts | 35° |
| 2026-05-05 02:37 | 45.68776 | -73.62872 | 3042 ft | 286 kts | 37° |
| 2026-05-05 02:38 | 45.70260 | -73.60964 | 3042 ft | 286 kts | 38° |
| 2026-05-05 02:38 | 45.71555 | -73.58814 | 3042 ft | 287 kts | 60° |
| 2026-05-05 02:38 | 45.72096 | -73.56205 | 3039 ft | 270 kts | 91° |
| 2026-05-05 02:38 | 45.71762 | -73.53643 | 3043 ft | 259 kts | 122° |
| 2026-05-05 02:39 | 45.70688 | -73.51737 | 3044 ft | 238 kts | 154° |
| 2026-05-05 02:39 | 45.69225 | -73.50960 | 3043 ft | 218 kts | 186° |
| 2026-05-05 02:39 | 45.67780 | -73.51246 | 3040 ft | 206 kts | 203° |
| 2026-05-05 02:39 | 45.66484 | -73.52019 | 3040 ft | 197 kts | 224° |
| 2026-05-05 02:40 | 45.65712 | -73.53583 | 3041 ft | 194 kts | 245° |
| 2026-05-05 02:40 | 45.65131 | -73.55328 | 3043 ft | 194 kts | 245° |
| 2026-05-05 02:40 | 45.64551 | -73.57071 | 3041 ft | 194 kts | 245° |
| 2026-05-05 02:40 | 45.63972 | -73.58824 | 3040 ft | 195 kts | 245° |
| 2026-05-05 02:41 | 45.63404 | -73.60574 | 3043 ft | 194 kts | 245° |
| 2026-05-05 02:41 | 45.62835 | -73.62329 | 3040 ft | 194 kts | 245° |
| 2026-05-05 02:41 | 45.62276 | -73.64049 | 3039 ft | 193 kts | 245° |
| 2026-05-05 02:41 | 45.61506 | -73.65624 | 3042 ft | 197 kts | 226° |
| 2026-05-05 02:42 | 45.60672 | -73.67121 | 3043 ft | 193 kts | 248° |
| 2026-05-05 02:42 | 45.60263 | -73.68965 | 3041 ft | 196 kts | 253° |
| 2026-05-05 02:42 | 45.59906 | -73.70845 | 3040 ft | 194 kts | 253° |
| 2026-05-05 02:42 | 45.59551 | -73.72701 | 3041 ft | 194 kts | 253° |
| 2026-05-05 02:43 | 45.59194 | -73.74570 | 3042 ft | 194 kts | 253° |
| 2026-05-05 02:43 | 45.58796 | -73.76396 | 3040 ft | 192 kts | 244° |
| 2026-05-05 02:43 | 45.58132 | -73.78078 | 3041 ft | 196 kts | 241° |
| 2026-05-05 02:43 | 45.57466 | -73.79761 | 3038 ft | 194 kts | 241° |
| 2026-05-05 02:44 | 45.56795 | -73.81446 | 3038 ft | 195 kts | 241° |
| 2026-05-05 02:44 | 45.56129 | -73.83116 | 3040 ft | 193 kts | 241° |
| 2026-05-05 02:44 | 45.55466 | -73.84764 | 3041 ft | 194 kts | 241° |
| 2026-05-05 02:44 | 45.54795 | -73.86436 | 3037 ft | 194 kts | 241° |
| 2026-05-05 02:45 | 45.54125 | -73.88106 | 3043 ft | 195 kts | 241° |
| 2026-05-05 02:45 | 45.53451 | -73.89793 | 3039 ft | 196 kts | 241° |
| 2026-05-05 02:45 | 45.52774 | -73.91482 | 3041 ft | 196 kts | 241° |
| 2026-05-05 02:45 | 45.52060 | -73.93138 | 3037 ft | 196 kts | 231° |
| 2026-05-05 02:46 | 45.50988 | -73.94337 | 3037 ft | 199 kts | 216° |
| 2026-05-05 02:46 | 45.49729 | -73.95208 | 3037 ft | 202 kts | 210° |
| 2026-05-05 02:46 | 45.48428 | -73.96029 | 3037 ft | 206 kts | 210° |
| 2026-05-05 02:46 | 45.47053 | -73.96592 | 3035 ft | 214 kts | 188° |
| 2026-05-05 02:47 | 45.45552 | -73.96278 | 3036 ft | 216 kts | 178° |
| 2026-05-05 02:47 | 45.44127 | -73.95857 | 3035 ft | 202 kts | 178° |
| 2026-05-05 02:47 | 45.42804 | -73.95389 | 3028 ft | 196 kts | 166° |
| 2026-05-05 02:47 | 45.42048 | -73.94661 | 3040 ft | 200 kts | 149° |
| 2026-05-05 02:48 | 45.40798 | -73.92613 | 3021 ft | 218 kts | 120° |
| 2026-05-05 02:48 | 45.40596 | -73.90428 | 2990 ft | 230 kts | 86° |
| 2026-05-05 02:48 | 45.40806 | -73.88152 | 2515 ft | 245 kts | 81° |
| 2026-05-05 02:48 | 45.41063 | -73.86525 | 2085 ft | 249 kts | 78° |
| 2026-05-05 02:49 | 45.41515 | -73.84173 | 1539 ft | 241 kts | 70° |
| 2026-05-05 02:49 | 45.42271 | -73.82213 | 1196 ft | 211 kts | 55° |
| 2026-05-05 02:49 | 45.43107 | -73.80708 | 875 ft | 181 kts | 51° |
| 2026-05-05 02:49 | 45.43883 | -73.79524 | 695 ft | 148 kts | 45° |
| 2026-05-05 02:50 | 45.44580 | -73.78579 | 515 ft | 130 kts | 47° |
| 2026-05-05 02:50 | 45.45212 | -73.77703 | 397 ft | 127 kts | 46° |
| 2026-05-05 02:50 | 45.45846 | -73.76859 | 252 ft | 124 kts | 46° |
| 2026-05-05 02:50 | 45.46445 | -73.76070 | 138 ft | 111 kts | 47° |
| 2026-05-05 02:51 | 45.46965 | -73.75372 | 117 ft | 92 kts | 44° |
| 2026-05-05 02:51 | 45.47229 | -73.75040 | 117 ft | 37 kts | 42° |
| 2026-05-05 02:51 | 45.47360 | -73.74740 | 117 ft | 34 kts | 73° |
| 2026-05-05 02:51 | 45.47389 | -73.74523 | 115 ft | 10 kts | 120° |
| 2026-05-05 02:52 | 45.47350 | -73.74507 | 115 ft | 7 kts | 184° |
| 2026-05-05 02:52 | 45.47294 | -73.74555 | 115 ft | 12 kts | 224° |
| 2026-05-05 02:52 | 45.47218 | -73.74656 | 114 ft | 18 kts | 223° |
| 2026-05-05 02:52 | 45.47117 | -73.74789 | 113 ft | 22 kts | 222° |
| 2026-05-05 02:53 | 45.46989 | -73.74953 | 116 ft | 27 kts | 221° |
| 2026-05-05 02:53 | 45.46818 | -73.75033 | 114 ft | 28 kts | 181° |
| 2026-05-05 02:53 | 45.46615 | -73.75026 | 112 ft | 31 kts | 178° |
| 2026-05-05 02:53 | 45.46393 | -73.75011 | 114 ft | 33 kts | 178° |
| 2026-05-05 02:54 | 45.46190 | -73.74999 | 115 ft | 14 kts | 171° |
| 2026-05-05 02:54 | 45.46155 | -73.74930 | 114 ft | 1 kts | 76° |
| 2026-05-05 02:54 | 45.46157 | -73.74843 | 113 ft | 16 kts | 89° |
| 2026-05-05 02:54 | 45.46158 | -73.74654 | 116 ft | 22 kts | 90° |
| 2026-05-05 02:55 | 45.46074 | -73.74490 | 112 ft | 16 kts | 143° |
| 2026-05-05 02:55 | 45.45986 | -73.74418 | 113 ft | 4 kts | 162° |
| 2026-05-05 02:55 | 45.45973 | -73.74382 | 115 ft | 6 kts | 108° |
| 2026-05-05 02:55 | 45.45932 | -73.74361 | 113 ft | 8 kts | 195° |
| 2026-05-05 02:56 | 45.45884 | -73.74393 | 112 ft | 0 kts | 204° |